<?xml version="1.0" encoding="UTF-8" standalone="no" ?>
<gpx xmlns="http://www.topografix.com/GPX/1/1" xmlns:xsi="http://www.w3.org/2001/XMLSchema-instance" xsi:schemaLocation="http://www.topografix.com/GPX/1/1 http://www.topografix.com/GPX/1/1/gpx.xsd" version="1.1" creator="VisuGPX - https://www.visugpx.com">
  <metadata>
    <name>46-Saint Pierre Lafeuille</name>
    <desc><![CDATA[Randonnée du 20/03/2017 11Km D320m, Au départ de ST Pierre Lafeuille et avec toujours en vue le château du Roussillon, ce circuit serpente sur les chemins en sous-bois jusqu'à Valroufié]]></desc>
  </metadata>
  <trk>
    <name><![CDATA[OR-7155024--Saint-Pierre-Lafeuille:St Pierre Lafeuille - Valroufié]]></name>
    <trkseg>
      <trkpt lat="44.52389" lon="1.45457">
        <ele>329</ele>
        <time>2017-03-16T19:28:07Z</time>
      </trkpt>
      <trkpt lat="44.52396" lon="1.45502">
        <ele>329</ele>
        <time>2017-03-16T19:30:07Z</time>
      </trkpt>
      <trkpt lat="44.52353" lon="1.45568">
        <ele>326</ele>
        <time>2017-03-16T19:32:07Z</time>
      </trkpt>
      <trkpt lat="44.52331" lon="1.4564">
        <ele>323</ele>
        <time>2017-03-16T19:34:07Z</time>
      </trkpt>
      <trkpt lat="44.52322" lon="1.4576">
        <ele>317</ele>
        <time>2017-03-16T19:36:07Z</time>
      </trkpt>
      <trkpt lat="44.52292" lon="1.45793">
        <ele>314</ele>
        <time>2017-03-16T19:38:07Z</time>
      </trkpt>
      <trkpt lat="44.5225" lon="1.45827">
        <ele>312</ele>
        <time>2017-03-16T19:40:07Z</time>
      </trkpt>
      <trkpt lat="44.52207" lon="1.45873">
        <ele>310</ele>
        <time>2017-03-16T19:42:07Z</time>
      </trkpt>
      <trkpt lat="44.52173" lon="1.45879">
        <ele>308</ele>
        <time>2017-03-16T19:44:07Z</time>
      </trkpt>
      <trkpt lat="44.52142" lon="1.45923">
        <ele>308</ele>
        <time>2017-03-16T19:46:07Z</time>
      </trkpt>
      <trkpt lat="44.52121" lon="1.45957">
        <ele>311</ele>
        <time>2017-03-16T19:48:07Z</time>
      </trkpt>
      <trkpt lat="44.52086" lon="1.45991">
        <ele>317</ele>
        <time>2017-03-16T19:50:07Z</time>
      </trkpt>
      <trkpt lat="44.5206" lon="1.46031">
        <ele>318</ele>
        <time>2017-03-16T19:52:07Z</time>
      </trkpt>
      <trkpt lat="44.52049" lon="1.46067">
        <ele>321</ele>
        <time>2017-03-16T19:54:07Z</time>
      </trkpt>
      <trkpt lat="44.52043" lon="1.46104">
        <ele>322</ele>
        <time>2017-03-16T19:56:07Z</time>
      </trkpt>
      <trkpt lat="44.52054" lon="1.46151">
        <ele>327</ele>
        <time>2017-03-16T19:58:07Z</time>
      </trkpt>
      <trkpt lat="44.52141" lon="1.46285">
        <ele>333</ele>
        <time>2017-03-16T20:00:07Z</time>
      </trkpt>
      <trkpt lat="44.5218" lon="1.46333">
        <ele>337</ele>
        <time>2017-03-16T20:02:07Z</time>
      </trkpt>
      <trkpt lat="44.52209" lon="1.46365">
        <ele>335</ele>
        <time>2017-03-16T20:04:07Z</time>
      </trkpt>
      <trkpt lat="44.52259" lon="1.46463">
        <ele>330</ele>
        <time>2017-03-16T20:06:07Z</time>
      </trkpt>
      <trkpt lat="44.52251" lon="1.46554">
        <ele>322</ele>
        <time>2017-03-16T20:08:07Z</time>
      </trkpt>
      <trkpt lat="44.52266" lon="1.46662">
        <ele>313</ele>
        <time>2017-03-16T20:10:07Z</time>
      </trkpt>
      <trkpt lat="44.5226" lon="1.46724">
        <ele>312</ele>
        <time>2017-03-16T20:12:07Z</time>
      </trkpt>
      <trkpt lat="44.52244" lon="1.46772">
        <ele>313</ele>
        <time>2017-03-16T20:14:07Z</time>
      </trkpt>
      <trkpt lat="44.52208" lon="1.46842">
        <ele>314</ele>
        <time>2017-03-16T20:16:07Z</time>
      </trkpt>
      <trkpt lat="44.52175" lon="1.46819">
        <ele>317</ele>
        <time>2017-03-16T20:18:07Z</time>
      </trkpt>
      <trkpt lat="44.52091" lon="1.4681">
        <ele>311</ele>
        <time>2017-03-16T20:20:07Z</time>
      </trkpt>
      <trkpt lat="44.51934" lon="1.4683">
        <ele>305</ele>
        <time>2017-03-16T20:22:07Z</time>
      </trkpt>
      <trkpt lat="44.51808" lon="1.46819">
        <ele>299</ele>
        <time>2017-03-16T20:24:07Z</time>
      </trkpt>
      <trkpt lat="44.51764" lon="1.46909">
        <ele>297</ele>
        <time>2017-03-16T20:26:07Z</time>
      </trkpt>
      <trkpt lat="44.51729" lon="1.46999">
        <ele>293</ele>
        <time>2017-03-16T20:28:07Z</time>
      </trkpt>
      <trkpt lat="44.51705" lon="1.47039">
        <ele>289</ele>
        <time>2017-03-16T20:30:07Z</time>
      </trkpt>
      <trkpt lat="44.51709" lon="1.47067">
        <ele>289</ele>
        <time>2017-03-16T20:32:07Z</time>
      </trkpt>
      <trkpt lat="44.51688" lon="1.47211">
        <ele>277</ele>
        <time>2017-03-16T20:34:07Z</time>
      </trkpt>
      <trkpt lat="44.51698" lon="1.47254">
        <ele>272</ele>
        <time>2017-03-16T20:36:07Z</time>
      </trkpt>
      <trkpt lat="44.517" lon="1.47311">
        <ele>266</ele>
        <time>2017-03-16T20:38:07Z</time>
      </trkpt>
      <trkpt lat="44.51713" lon="1.4736">
        <ele>261</ele>
        <time>2017-03-16T20:40:07Z</time>
      </trkpt>
      <trkpt lat="44.5176" lon="1.47471">
        <ele>248</ele>
        <time>2017-03-16T20:42:07Z</time>
      </trkpt>
      <trkpt lat="44.51783" lon="1.47465">
        <ele>240</ele>
        <time>2017-03-16T20:44:07Z</time>
      </trkpt>
      <trkpt lat="44.51789" lon="1.47436">
        <ele>240</ele>
        <time>2017-03-16T20:46:07Z</time>
      </trkpt>
      <trkpt lat="44.51789" lon="1.47354">
        <ele>248</ele>
        <time>2017-03-16T20:48:07Z</time>
      </trkpt>
      <trkpt lat="44.51855" lon="1.47442">
        <ele>222</ele>
        <time>2017-03-16T20:50:07Z</time>
      </trkpt>
      <trkpt lat="44.51884" lon="1.47458">
        <ele>217</ele>
        <time>2017-03-16T20:52:07Z</time>
      </trkpt>
      <trkpt lat="44.5194" lon="1.47409">
        <ele>217</ele>
        <time>2017-03-16T20:54:07Z</time>
      </trkpt>
      <trkpt lat="44.51972" lon="1.47363">
        <ele>221</ele>
        <time>2017-03-16T20:56:07Z</time>
      </trkpt>
      <trkpt lat="44.52005" lon="1.47364">
        <ele>220</ele>
        <time>2017-03-16T20:58:07Z</time>
      </trkpt>
      <trkpt lat="44.52014" lon="1.47374">
        <ele>221</ele>
        <time>2017-03-16T21:00:07Z</time>
      </trkpt>
      <trkpt lat="44.52077" lon="1.47353">
        <ele>228</ele>
        <time>2017-03-16T21:02:07Z</time>
      </trkpt>
      <trkpt lat="44.52105" lon="1.47332">
        <ele>230</ele>
        <time>2017-03-16T21:04:07Z</time>
      </trkpt>
      <trkpt lat="44.52135" lon="1.47302">
        <ele>236</ele>
        <time>2017-03-16T21:06:07Z</time>
      </trkpt>
      <trkpt lat="44.52171" lon="1.47218">
        <ele>239</ele>
        <time>2017-03-16T21:08:07Z</time>
      </trkpt>
      <trkpt lat="44.52188" lon="1.472">
        <ele>242</ele>
        <time>2017-03-16T21:10:07Z</time>
      </trkpt>
      <trkpt lat="44.52275" lon="1.47082">
        <ele>245</ele>
        <time>2017-03-16T21:12:07Z</time>
      </trkpt>
      <trkpt lat="44.5231" lon="1.47056">
        <ele>249</ele>
        <time>2017-03-16T21:14:07Z</time>
      </trkpt>
      <trkpt lat="44.52383" lon="1.47016">
        <ele>258</ele>
        <time>2017-03-16T21:16:07Z</time>
      </trkpt>
      <trkpt lat="44.52404" lon="1.46982">
        <ele>258</ele>
        <time>2017-03-16T21:18:07Z</time>
      </trkpt>
      <trkpt lat="44.52409" lon="1.46952">
        <ele>256</ele>
        <time>2017-03-16T21:20:07Z</time>
      </trkpt>
      <trkpt lat="44.52429" lon="1.46897">
        <ele>257</ele>
        <time>2017-03-16T21:22:07Z</time>
      </trkpt>
      <trkpt lat="44.52478" lon="1.46829">
        <ele>265</ele>
        <time>2017-03-16T21:24:07Z</time>
      </trkpt>
      <trkpt lat="44.52508" lon="1.46758">
        <ele>266</ele>
        <time>2017-03-16T21:26:07Z</time>
      </trkpt>
      <trkpt lat="44.5252" lon="1.46707">
        <ele>273</ele>
        <time>2017-03-16T21:28:07Z</time>
      </trkpt>
      <trkpt lat="44.52527" lon="1.46623">
        <ele>282</ele>
        <time>2017-03-16T21:30:07Z</time>
      </trkpt>
      <trkpt lat="44.52536" lon="1.46636">
        <ele>283</ele>
        <time>2017-03-16T21:32:07Z</time>
      </trkpt>
      <trkpt lat="44.52539" lon="1.4666">
        <ele>282</ele>
        <time>2017-03-16T21:34:07Z</time>
      </trkpt>
      <trkpt lat="44.52551" lon="1.46749">
        <ele>283</ele>
        <time>2017-03-16T21:36:07Z</time>
      </trkpt>
      <trkpt lat="44.52518" lon="1.46898">
        <ele>286</ele>
        <time>2017-03-16T21:38:07Z</time>
      </trkpt>
      <trkpt lat="44.52503" lon="1.46952">
        <ele>288</ele>
        <time>2017-03-16T21:40:07Z</time>
      </trkpt>
      <trkpt lat="44.52521" lon="1.46927">
        <ele>291</ele>
        <time>2017-03-16T21:42:07Z</time>
      </trkpt>
      <trkpt lat="44.52527" lon="1.46971">
        <ele>297</ele>
        <time>2017-03-16T21:44:07Z</time>
      </trkpt>
      <trkpt lat="44.52549" lon="1.46985">
        <ele>303</ele>
        <time>2017-03-16T21:46:07Z</time>
      </trkpt>
      <trkpt lat="44.52572" lon="1.47037">
        <ele>311</ele>
        <time>2017-03-16T21:48:07Z</time>
      </trkpt>
      <trkpt lat="44.52591" lon="1.47045">
        <ele>312</ele>
        <time>2017-03-16T21:50:07Z</time>
      </trkpt>
      <trkpt lat="44.52584" lon="1.47121">
        <ele>315</ele>
        <time>2017-03-16T21:52:07Z</time>
      </trkpt>
      <trkpt lat="44.52548" lon="1.47172">
        <ele>317</ele>
        <time>2017-03-16T21:54:07Z</time>
      </trkpt>
      <trkpt lat="44.52472" lon="1.47286">
        <ele>326</ele>
        <time>2017-03-16T21:56:07Z</time>
      </trkpt>
      <trkpt lat="44.5237" lon="1.47383">
        <ele>317</ele>
        <time>2017-03-16T21:58:07Z</time>
      </trkpt>
      <trkpt lat="44.52322" lon="1.47457">
        <ele>311</ele>
        <time>2017-03-16T22:00:07Z</time>
      </trkpt>
      <trkpt lat="44.52279" lon="1.47537">
        <ele>305</ele>
        <time>2017-03-16T22:02:07Z</time>
      </trkpt>
      <trkpt lat="44.52226" lon="1.47647">
        <ele>302</ele>
        <time>2017-03-16T22:04:07Z</time>
      </trkpt>
      <trkpt lat="44.52205" lon="1.47751">
        <ele>298</ele>
        <time>2017-03-16T22:06:07Z</time>
      </trkpt>
      <trkpt lat="44.52187" lon="1.47899">
        <ele>282</ele>
        <time>2017-03-16T22:08:07Z</time>
      </trkpt>
      <trkpt lat="44.52169" lon="1.47963">
        <ele>275</ele>
        <time>2017-03-16T22:10:07Z</time>
      </trkpt>
      <trkpt lat="44.52145" lon="1.48013">
        <ele>269</ele>
        <time>2017-03-16T22:12:07Z</time>
      </trkpt>
      <trkpt lat="44.52132" lon="1.48068">
        <ele>267</ele>
        <time>2017-03-16T22:14:07Z</time>
      </trkpt>
      <trkpt lat="44.52098" lon="1.48155">
        <ele>261</ele>
        <time>2017-03-16T22:16:07Z</time>
      </trkpt>
      <trkpt lat="44.52048" lon="1.48251">
        <ele>249</ele>
        <time>2017-03-16T22:18:07Z</time>
      </trkpt>
      <trkpt lat="44.5201" lon="1.48332">
        <ele>240</ele>
        <time>2017-03-16T22:20:07Z</time>
      </trkpt>
      <trkpt lat="44.51981" lon="1.48411">
        <ele>227</ele>
        <time>2017-03-16T22:22:07Z</time>
      </trkpt>
      <trkpt lat="44.51933" lon="1.48554">
        <ele>206</ele>
        <time>2017-03-16T22:24:07Z</time>
      </trkpt>
      <trkpt lat="44.51945" lon="1.48584">
        <ele>199</ele>
        <time>2017-03-16T22:26:07Z</time>
      </trkpt>
      <trkpt lat="44.51944" lon="1.48641">
        <ele>194</ele>
        <time>2017-03-16T22:28:07Z</time>
      </trkpt>
      <trkpt lat="44.51911" lon="1.4872">
        <ele>192</ele>
        <time>2017-03-16T22:30:07Z</time>
      </trkpt>
      <trkpt lat="44.51857" lon="1.48757">
        <ele>193</ele>
        <time>2017-03-16T22:32:07Z</time>
      </trkpt>
      <trkpt lat="44.518" lon="1.48776">
        <ele>194</ele>
        <time>2017-03-16T22:34:07Z</time>
      </trkpt>
      <trkpt lat="44.51782" lon="1.48703">
        <ele>198</ele>
        <time>2017-03-16T22:36:07Z</time>
      </trkpt>
      <trkpt lat="44.51714" lon="1.48704">
        <ele>199</ele>
        <time>2017-03-16T22:38:07Z</time>
      </trkpt>
      <trkpt lat="44.51632" lon="1.48718">
        <ele>197</ele>
        <time>2017-03-16T22:40:07Z</time>
      </trkpt>
      <trkpt lat="44.51561" lon="1.4875">
        <ele>189</ele>
        <time>2017-03-16T22:42:07Z</time>
      </trkpt>
      <trkpt lat="44.51482" lon="1.4872">
        <ele>192</ele>
        <time>2017-03-16T22:44:07Z</time>
      </trkpt>
      <trkpt lat="44.51439" lon="1.48691">
        <ele>188</ele>
        <time>2017-03-16T22:46:07Z</time>
      </trkpt>
      <trkpt lat="44.51403" lon="1.48657">
        <ele>185</ele>
        <time>2017-03-16T22:48:07Z</time>
      </trkpt>
      <trkpt lat="44.51357" lon="1.48635">
        <ele>182</ele>
        <time>2017-03-16T22:50:07Z</time>
      </trkpt>
      <trkpt lat="44.51376" lon="1.48398">
        <ele>185</ele>
        <time>2017-03-16T22:52:07Z</time>
      </trkpt>
      <trkpt lat="44.51355" lon="1.48226">
        <ele>184</ele>
        <time>2017-03-16T22:54:07Z</time>
      </trkpt>
      <trkpt lat="44.5129" lon="1.48073">
        <ele>179</ele>
        <time>2017-03-16T22:56:07Z</time>
      </trkpt>
      <trkpt lat="44.51257" lon="1.48056">
        <ele>177</ele>
        <time>2017-03-16T22:58:07Z</time>
      </trkpt>
      <trkpt lat="44.51228" lon="1.48056">
        <ele>175</ele>
        <time>2017-03-16T23:00:07Z</time>
      </trkpt>
      <trkpt lat="44.51212" lon="1.48036">
        <ele>176</ele>
        <time>2017-03-16T23:02:07Z</time>
      </trkpt>
      <trkpt lat="44.51199" lon="1.48014">
        <ele>176</ele>
        <time>2017-03-16T23:04:07Z</time>
      </trkpt>
      <trkpt lat="44.51188" lon="1.47954">
        <ele>180</ele>
        <time>2017-03-16T23:06:07Z</time>
      </trkpt>
      <trkpt lat="44.51168" lon="1.47896">
        <ele>180</ele>
        <time>2017-03-16T23:08:07Z</time>
      </trkpt>
      <trkpt lat="44.51153" lon="1.47789">
        <ele>180</ele>
        <time>2017-03-16T23:10:07Z</time>
      </trkpt>
      <trkpt lat="44.51132" lon="1.47667">
        <ele>182</ele>
        <time>2017-03-16T23:12:07Z</time>
      </trkpt>
      <trkpt lat="44.51099" lon="1.47557">
        <ele>181</ele>
        <time>2017-03-16T23:14:07Z</time>
      </trkpt>
      <trkpt lat="44.51013" lon="1.47419">
        <ele>179</ele>
        <time>2017-03-16T23:16:07Z</time>
      </trkpt>
      <trkpt lat="44.50909" lon="1.47297">
        <ele>173</ele>
        <time>2017-03-16T23:18:07Z</time>
      </trkpt>
      <trkpt lat="44.50883" lon="1.47207">
        <ele>172</ele>
        <time>2017-03-16T23:20:07Z</time>
      </trkpt>
      <trkpt lat="44.50785" lon="1.47143">
        <ele>165</ele>
        <time>2017-03-16T23:22:07Z</time>
      </trkpt>
      <trkpt lat="44.50717" lon="1.47061">
        <ele>165</ele>
        <time>2017-03-16T23:24:07Z</time>
      </trkpt>
      <trkpt lat="44.50656" lon="1.46958">
        <ele>163</ele>
        <time>2017-03-16T23:26:07Z</time>
      </trkpt>
      <trkpt lat="44.50665" lon="1.46887">
        <ele>164</ele>
        <time>2017-03-16T23:28:07Z</time>
      </trkpt>
      <trkpt lat="44.5072" lon="1.46818">
        <ele>172</ele>
        <time>2017-03-16T23:30:07Z</time>
      </trkpt>
      <trkpt lat="44.50771" lon="1.46728">
        <ele>175</ele>
        <time>2017-03-16T23:32:07Z</time>
      </trkpt>
      <trkpt lat="44.50839" lon="1.46519">
        <ele>173</ele>
        <time>2017-03-16T23:34:07Z</time>
      </trkpt>
      <trkpt lat="44.50939" lon="1.46328">
        <ele>174</ele>
        <time>2017-03-16T23:36:07Z</time>
      </trkpt>
      <trkpt lat="44.50971" lon="1.46246">
        <ele>184</ele>
        <time>2017-03-16T23:38:07Z</time>
      </trkpt>
      <trkpt lat="44.50975" lon="1.46148">
        <ele>186</ele>
        <time>2017-03-16T23:40:07Z</time>
      </trkpt>
      <trkpt lat="44.50977" lon="1.46101">
        <ele>184</ele>
        <time>2017-03-16T23:42:07Z</time>
      </trkpt>
      <trkpt lat="44.50997" lon="1.46057">
        <ele>185</ele>
        <time>2017-03-16T23:44:07Z</time>
      </trkpt>
      <trkpt lat="44.51027" lon="1.4602">
        <ele>189</ele>
        <time>2017-03-16T23:46:07Z</time>
      </trkpt>
      <trkpt lat="44.51113" lon="1.45966">
        <ele>193</ele>
        <time>2017-03-16T23:48:07Z</time>
      </trkpt>
      <trkpt lat="44.51226" lon="1.4592">
        <ele>193</ele>
        <time>2017-03-16T23:50:07Z</time>
      </trkpt>
      <trkpt lat="44.51326" lon="1.45945">
        <ele>202</ele>
        <time>2017-03-16T23:52:07Z</time>
      </trkpt>
      <trkpt lat="44.51375" lon="1.45946">
        <ele>202</ele>
        <time>2017-03-16T23:54:07Z</time>
      </trkpt>
      <trkpt lat="44.51428" lon="1.4598">
        <ele>206</ele>
        <time>2017-03-16T23:56:07Z</time>
      </trkpt>
      <trkpt lat="44.51509" lon="1.46047">
        <ele>215</ele>
        <time>2017-03-16T23:58:07Z</time>
      </trkpt>
      <trkpt lat="44.51567" lon="1.46081">
        <ele>215</ele>
        <time>2017-03-17T00:00:07Z</time>
      </trkpt>
      <trkpt lat="44.51585" lon="1.46082">
        <ele>214</ele>
        <time>2017-03-17T00:02:07Z</time>
      </trkpt>
      <trkpt lat="44.51604" lon="1.46066">
        <ele>217</ele>
        <time>2017-03-17T00:04:07Z</time>
      </trkpt>
      <trkpt lat="44.51631" lon="1.46055">
        <ele>220</ele>
        <time>2017-03-17T00:06:07Z</time>
      </trkpt>
      <trkpt lat="44.51659" lon="1.46058">
        <ele>222</ele>
        <time>2017-03-17T00:08:07Z</time>
      </trkpt>
      <trkpt lat="44.51681" lon="1.46069">
        <ele>222</ele>
        <time>2017-03-17T00:10:07Z</time>
      </trkpt>
      <trkpt lat="44.51701" lon="1.46088">
        <ele>221</ele>
        <time>2017-03-17T00:12:07Z</time>
      </trkpt>
      <trkpt lat="44.51751" lon="1.46148">
        <ele>219</ele>
        <time>2017-03-17T00:14:07Z</time>
      </trkpt>
      <trkpt lat="44.51782" lon="1.46148">
        <ele>223</ele>
        <time>2017-03-17T00:16:07Z</time>
      </trkpt>
      <trkpt lat="44.518" lon="1.46114">
        <ele>228</ele>
        <time>2017-03-17T00:18:07Z</time>
      </trkpt>
      <trkpt lat="44.51823" lon="1.4606">
        <ele>233</ele>
        <time>2017-03-17T00:20:07Z</time>
      </trkpt>
      <trkpt lat="44.51843" lon="1.46">
        <ele>239</ele>
        <time>2017-03-17T00:22:07Z</time>
      </trkpt>
      <trkpt lat="44.51873" lon="1.45897">
        <ele>256</ele>
        <time>2017-03-17T00:24:07Z</time>
      </trkpt>
      <trkpt lat="44.51898" lon="1.45856">
        <ele>261</ele>
        <time>2017-03-17T00:26:07Z</time>
      </trkpt>
      <trkpt lat="44.51941" lon="1.45833">
        <ele>262</ele>
        <time>2017-03-17T00:28:07Z</time>
      </trkpt>
      <trkpt lat="44.51985" lon="1.45831">
        <ele>265</ele>
        <time>2017-03-17T00:30:07Z</time>
      </trkpt>
      <trkpt lat="44.52025" lon="1.45818">
        <ele>274</ele>
        <time>2017-03-17T00:32:07Z</time>
      </trkpt>
      <trkpt lat="44.5214" lon="1.45796">
        <ele>299</ele>
        <time>2017-03-17T00:34:07Z</time>
      </trkpt>
      <trkpt lat="44.52155" lon="1.45799">
        <ele>301</ele>
        <time>2017-03-17T00:36:07Z</time>
      </trkpt>
      <trkpt lat="44.52166" lon="1.45788">
        <ele>303</ele>
        <time>2017-03-17T00:38:07Z</time>
      </trkpt>
      <trkpt lat="44.52194" lon="1.45754">
        <ele>306</ele>
        <time>2017-03-17T00:40:07Z</time>
      </trkpt>
      <trkpt lat="44.52228" lon="1.45727">
        <ele>309</ele>
        <time>2017-03-17T00:42:07Z</time>
      </trkpt>
      <trkpt lat="44.52259" lon="1.45601">
        <ele>317</ele>
        <time>2017-03-17T00:44:07Z</time>
      </trkpt>
      <trkpt lat="44.5229" lon="1.45527">
        <ele>325</ele>
        <time>2017-03-17T00:46:07Z</time>
      </trkpt>
      <trkpt lat="44.52318" lon="1.45495">
        <ele>328</ele>
        <time>2017-03-17T00:48:07Z</time>
      </trkpt>
      <trkpt lat="44.52348" lon="1.45452">
        <ele>331</ele>
        <time>2017-03-17T00:50:07Z</time>
      </trkpt>
      <trkpt lat="44.52372" lon="1.4544">
        <ele>330</ele>
        <time>2017-03-17T00:52:07Z</time>
      </trkpt>
      <trkpt lat="44.52384" lon="1.45451">
        <ele>329</ele>
        <time>2017-03-17T00:54:07Z</time>
      </trkpt>
    </trkseg>
  </trk>
</gpx>